sensor_id;sensor_type;location;lat;lon;timestamp;pressure;altitude;pressure_sealevel;temperature;humidity
20909;BME280;10614;53.198;6.570;2023-02-11T00:00:40;103171.34;;;5.99;100.00
20909;BME280;10614;53.198;6.570;2023-02-11T00:02:43;103167.91;;;6.01;100.00
20909;BME280;10614;53.198;6.570;2023-02-11T00:04:45;103169.69;;;6.02;100.00
20909;BME280;10614;53.198;6.570;2023-02-11T00:06:46;103166.19;;;6.02;100.00
20909;BME280;10614;53.198;6.570;2023-02-11T00:08:50;103155.75;;;6.02;100.00
20909;BME280;10614;53.198;6.570;2023-02-11T00:10:52;103147.00;;;6.01;100.00
20909;BME280;10614;53.198;6.570;2023-02-11T00:12:55;103125.25;;;6.04;100.00
20909;BME280;10614;53.198;6.570;2023-02-11T00:14:57;103134.81;;;6.02;100.00
20909;BME280;10614;53.198;6.570;2023-02-11T00:16:59;103140.94;;;6.02;100.00
20909;BME280;10614;53.198;6.570;2023-02-11T00:19:01;103140.94;;;6.02;100.00
20909;BME280;10614;53.198;6.570;2023-02-11T00:21:06;103136.53;;;6.01;100.00
20909;BME280;10614;53.198;6.570;2023-02-11T00:23:08;103143.50;;;6.01;100.00
20909;BME280;10614;53.198;6.570;2023-02-11T00:25:09;103147.88;;;6.00;100.00
20909;BME280;10614;53.198;6.570;2023-02-11T00:27:11;103151.38;;;6.04;100.00
20909;BME280;10614;53.198;6.570;2023-02-11T00:29:14;103165.38;;;6.04;100.00
20909;BME280;10614;53.198;6.570;2023-02-11T00:31:17;103157.50;;;6.03;100.00
20909;BME280;10614;53.198;6.570;2023-02-11T00:33:19;103146.16;;;6.02;100.00
20909;BME280;10614;53.198;6.570;2023-02-11T00:35:21;103153.13;;;6.03;100.00
20909;BME280;10614;53.198;6.570;2023-02-11T00:37:22;103152.28;;;6.06;100.00
20909;BME280;10614;53.198;6.570;2023-02-11T00:39:24;103147.13;;;6.09;100.00
20909;BME280;10614;53.198;6.570;2023-02-11T00:41:26;103127.09;;;6.09;100.00
20909;BME280;10614;53.198;6.570;2023-02-11T00:43:27;103133.19;;;6.10;100.00
20909;BME280;10614;53.198;6.570;2023-02-11T00:45:30;103127.97;;;6.10;100.00
20909;BME280;10614;53.198;6.570;2023-02-11T00:47:32;103137.50;;;6.06;100.00
20909;BME280;10614;53.198;6.570;2023-02-11T00:49:34;103120.00;;;6.04;100.00
20909;BME280;10614;53.198;6.570;2023-02-11T00:51:36;103123.59;;;6.09;100.00
20909;BME280;10614;53.198;6.570;2023-02-11T00:53:37;103127.94;;;6.07;100.00
20909;BME280;10614;53.198;6.570;2023-02-11T00:55:39;103134.06;;;6.09;100.00
20909;BME280;10614;53.198;6.570;2023-02-11T00:57:41;103130.53;;;6.08;100.00
20909;BME280;10614;53.198;6.570;2023-02-11T00:59:42;103140.13;;;6.06;100.00
20909;BME280;10614;53.198;6.570;2023-02-11T01:01:45;103146.22;;;6.08;100.00
20909;BME280;10614;53.198;6.570;2023-02-11T01:03:47;103157.59;;;6.09;100.00
20909;BME280;10614;53.198;6.570;2023-02-11T01:05:48;103158.44;;;6.08;100.00
20909;BME280;10614;53.198;6.570;2023-02-11T01:07:50;103165.44;;;6.09;100.00
20909;BME280;10614;53.198;6.570;2023-02-11T01:09:52;103165.41;;;6.07;100.00
20909;BME280;10614;53.198;6.570;2023-02-11T01:11:54;103175.91;;;6.09;100.00
20909;BME280;10614;53.198;6.570;2023-02-11T01:13:55;103170.72;;;6.12;100.00
20909;BME280;10614;53.198;6.570;2023-02-11T01:15:57;103168.94;;;6.11;100.00
20909;BME280;10614;53.198;6.570;2023-02-11T01:18:00;103159.34;;;6.10;100.00
20909;BME280;10614;53.198;6.570;2023-02-11T01:20:02;103159.31;;;6.07;100.00
20909;BME280;10614;53.198;6.570;2023-02-11T01:22:04;103152.28;;;6.04;100.00
20909;BME280;10614;53.198;6.570;2023-02-11T01:24:06;103147.03;;;6.03;100.00
20909;BME280;10614;53.198;6.570;2023-02-11T01:26:08;103145.28;;;6.02;100.00
20909;BME280;10614;53.198;6.570;2023-02-11T01:28:15;103139.19;;;6.03;100.00
20909;BME280;10614;53.198;6.570;2023-02-11T01:30:17;103140.06;;;6.03;100.00
20909;BME280;10614;53.198;6.570;2023-02-11T01:32:19;103133.09;;;6.04;100.00
20909;BME280;10614;53.198;6.570;2023-02-11T01:34:22;103128.72;;;6.03;100.00
20909;BME280;10614;53.198;6.570;2023-02-11T01:36:23;103147.91;;;6.02;100.00
20909;BME280;10614;53.198;6.570;2023-02-11T01:38:25;103141.81;;;6.03;100.00
20909;BME280;10614;53.198;6.570;2023-02-11T01:40:27;103140.03;;;6.00;100.00
20909;BME280;10614;53.198;6.570;2023-02-11T01:42:28;103131.31;;;6.00;100.00
20909;BME280;10614;53.198;6.570;2023-02-11T01:44:32;103130.41;;;5.98;100.00
20909;BME280;10614;53.198;6.570;2023-02-11T01:46:36;103145.22;;;5.99;100.00
20909;BME280;10614;53.198;6.570;2023-02-11T01:48:40;103146.09;;;5.99;100.00
20909;BME280;10614;53.198;6.570;2023-02-11T01:50:44;103139.06;;;5.97;100.00
20909;BME280;10614;53.198;6.570;2023-02-11T01:52:48;103140.84;;;5.98;100.00
20909;BME280;10614;53.198;6.570;2023-02-11T01:54:52;103136.47;;;5.97;100.00
20909;BME280;10614;53.198;6.570;2023-02-11T01:57:20;103131.22;;;5.95;100.00
20909;BME280;10614;53.198;6.570;2023-02-11T01:59:32;103125.09;;;5.95;100.00
20909;BME280;10614;53.198;6.570;2023-02-11T02:01:37;103124.22;;;5.94;100.00
20909;BME280;10614;53.198;6.570;2023-02-11T02:03:42;103126.72;;;5.89;100.00
20909;BME280;10614;53.198;6.570;2023-02-11T02:05:52;103125.00;;;5.88;100.00
20909;BME280;10614;53.198;6.570;2023-02-11T02:08:02;103135.44;;;5.88;100.00
20909;BME280;10614;53.198;6.570;2023-02-11T02:10:08;103138.94;;;5.89;100.00
20909;BME280;10614;53.198;6.570;2023-02-11T02:12:11;103121.44;;;5.85;100.00
20909;BME280;10614;53.198;6.570;2023-02-11T02:14:12;103122.28;;;5.84;100.00
20909;BME280;10614;53.198;6.570;2023-02-11T02:16:15;103122.28;;;5.84;100.00
20909;BME280;10614;53.198;6.570;2023-02-11T02:18:28;103117.09;;;5.87;100.00
20909;BME280;10614;53.198;6.570;2023-02-11T02:26:05;103105.81;;;5.88;100.00
20909;BME280;10614;53.198;6.570;2023-02-11T02:28:25;103101.47;;;5.88;100.00
20909;BME280;10614;53.198;6.570;2023-02-11T02:30:52;103091.84;;;5.87;100.00
20909;BME280;10614;53.198;6.570;2023-02-11T02:33:13;103103.97;;;5.82;100.00
20909;BME280;10614;53.198;6.570;2023-02-11T02:35:26;103088.28;;;5.82;100.00
20909;BME280;10614;53.198;6.570;2023-02-11T02:37:33;103085.66;;;5.82;100.00
20909;BME280;10614;53.198;6.570;2023-02-11T02:39:54;103078.75;;;5.84;100.00
20909;BME280;10614;53.198;6.570;2023-02-11T02:41:57;103082.25;;;5.86;100.00
20909;BME280;10614;53.198;6.570;2023-02-11T02:44:00;103103.13;;;5.85;100.00
20909;BME280;10614;53.198;6.570;2023-02-11T02:46:13;103082.22;;;5.83;100.00
20909;BME280;10614;53.198;6.570;2023-02-11T02:48:25;103070.81;;;5.80;100.00
20909;BME280;10614;53.198;6.570;2023-02-11T02:50:30;103076.91;;;5.80;100.00
20909;BME280;10614;53.198;6.570;2023-02-11T02:52:35;103069.09;;;5.80;100.00
20909;BME280;10614;53.198;6.570;2023-02-11T02:55:07;103073.47;;;5.83;100.00
20909;BME280;10614;53.198;6.570;2023-02-11T02:57:22;103064.75;;;5.81;100.00
20909;BME280;10614;53.198;6.570;2023-02-11T02:59:38;103069.09;;;5.80;100.00
20909;BME280;10614;53.198;6.570;2023-02-11T03:01:49;103067.34;;;5.79;100.00
20909;BME280;10614;53.198;6.570;2023-02-11T03:04:02;103073.41;;;5.78;100.00
20909;BME280;10614;53.198;6.570;2023-02-11T03:06:10;103067.31;;;5.78;100.00
20909;BME280;10614;53.198;6.570;2023-02-11T03:08:16;103064.75;;;5.81;100.00
20909;BME280;10614;53.198;6.570;2023-02-11T03:10:24;103071.75;;;5.83;100.00
20909;BME280;10614;53.198;6.570;2023-02-11T03:12:29;103066.53;;;5.83;100.00
20909;BME280;10614;53.198;6.570;2023-02-11T03:14:32;103061.31;;;5.83;100.00
20909;BME280;10614;53.198;6.570;2023-02-11T03:16:36;103059.59;;;5.85;100.00
20909;BME280;10614;53.198;6.570;2023-02-11T03:18:41;103056.09;;;5.83;100.00
20909;BME280;10614;53.198;6.570;2023-02-11T03:20:48;103063.06;;;5.84;100.00
20909;BME280;10614;53.198;6.570;2023-02-11T03:22:53;103060.41;;;5.83;100.00
20909;BME280;10614;53.198;6.570;2023-02-11T03:24:57;103061.31;;;5.83;100.00
20909;BME280;10614;53.198;6.570;2023-02-11T03:27:06;103058.69;;;5.83;100.00
20909;BME280;10614;53.198;6.570;2023-02-11T03:29:16;103066.53;;;5.85;100.00
20909;BME280;10614;53.198;6.570;2023-02-11T03:31:23;103068.31;;;5.87;100.00
20909;BME280;10614;53.198;6.570;2023-02-11T03:33:30;103063.91;;;5.83;100.00
20909;BME280;10614;53.198;6.570;2023-02-11T03:35:39;103051.75;;;5.87;100.00
20909;BME280;10614;53.198;6.570;2023-02-11T03:37:46;103045.69;;;5.89;100.00
20909;BME280;10614;53.198;6.570;2023-02-11T03:39:52;103057.03;;;5.88;100.00
20909;BME280;10614;53.198;6.570;2023-02-11T03:41:57;103054.41;;;5.88;100.00
20909;BME280;10614;53.198;6.570;2023-02-11T03:44:02;103062.28;;;5.90;100.00
20909;BME280;10614;53.198;6.570;2023-02-11T03:46:05;103059.59;;;5.87;100.00
20909;BME280;10614;53.198;6.570;2023-02-11T03:48:11;103057.88;;;5.87;100.00
20909;BME280;10614;53.198;6.570;2023-02-11T03:50:16;103061.38;;;5.89;100.00
20909;BME280;10614;53.198;6.570;2023-02-11T03:52:20;103047.44;;;5.89;100.00
20909;BME280;10614;53.198;6.570;2023-02-11T03:54:26;103044.88;;;5.92;100.00
20909;BME280;10614;53.198;6.570;2023-02-11T03:56:31;103055.41;;;5.95;100.00
20909;BME280;10614;53.198;6.570;2023-02-11T03:58:33;103052.81;;;5.95;100.00
20909;BME280;10614;53.198;6.570;2023-02-11T04:00:39;103053.69;;;5.96;100.00
20909;BME280;10614;53.198;6.570;2023-02-11T04:02:42;103054.56;;;5.96;100.00
20909;BME280;10614;53.198;6.570;2023-02-11T04:04:44;103054.59;;;5.98;100.00
20909;BME280;10614;53.198;6.570;2023-02-11T04:06:46;103059.72;;;5.93;100.00
20909;BME280;10614;53.198;6.570;2023-02-11T04:08:47;103058.03;;;5.95;100.00
20909;BME280;10614;53.198;6.570;2023-02-11T04:10:49;103055.34;;;5.93;100.00
20909;BME280;10614;53.198;6.570;2023-02-11T04:12:51;103064.16;;;5.97;100.00
20909;BME280;10614;53.198;6.570;2023-02-11T04:14:52;103060.66;;;5.97;100.00
20909;BME280;10614;53.198;6.570;2023-02-11T04:16:55;103065.88;;;5.97;100.00
20909;BME280;10614;53.198;6.570;2023-02-11T04:18:57;103062.44;;;5.98;100.00
20909;BME280;10614;53.198;6.570;2023-02-11T04:20:59;103062.44;;;5.99;100.00
20909;BME280;10614;53.198;6.570;2023-02-11T04:23:00;103056.31;;;5.99;100.00
20909;BME280;10614;53.198;6.570;2023-02-11T04:25:02;103058.06;;;5.98;100.00
20909;BME280;10614;53.198;6.570;2023-02-11T04:27:04;103052.88;;;6.00;100.00
20909;BME280;10614;53.198;6.570;2023-02-11T04:29:06;103040.63;;;5.97;100.00
20909;BME280;10614;53.198;6.570;2023-02-11T04:31:07;103045.91;;;6.00;100.00
20909;BME280;10614;53.198;6.570;2023-02-11T04:33:11;103056.38;;;6.03;100.00
20909;BME280;10614;53.198;6.570;2023-02-11T04:35:13;103058.16;;;6.04;100.00
20909;BME280;10614;53.198;6.570;2023-02-11T04:37:15;103059.03;;;6.05;100.00
20909;BME280;10614;53.198;6.570;2023-02-11T04:39:16;103067.78;;;6.08;100.00
20909;BME280;10614;53.198;6.570;2023-02-11T04:41:18;103062.56;;;6.08;100.00
20909;BME280;10614;53.198;6.570;2023-02-11T04:43:20;103066.06;;;6.09;100.00
20909;BME280;10614;53.198;6.570;2023-02-11T04:45:21;103067.81;;;6.10;100.00
20909;BME280;10614;53.198;6.570;2023-02-11T04:47:23;103060.00;;;6.11;100.00
20909;BME280;10614;53.198;6.570;2023-02-11T04:49:26;103072.19;;;6.09;100.00
20909;BME280;10614;53.198;6.570;2023-02-11T04:51:28;103064.34;;;6.11;100.00
20909;BME280;10614;53.198;6.570;2023-02-11T04:53:29;103066.06;;;6.09;100.00
20909;BME280;10614;53.198;6.570;2023-02-11T04:55:31;103065.25;;;6.11;100.00
20909;BME280;10614;53.198;6.570;2023-02-11T04:57:32;103057.41;;;6.13;100.00
20909;BME280;10614;53.198;6.570;2023-02-11T04:59:34;103065.25;;;6.13;100.00
20909;BME280;10614;53.198;6.570;2023-02-11T05:01:36;103062.66;;;6.15;100.00
20909;BME280;10614;53.198;6.570;2023-02-11T05:03:37;103069.69;;;6.19;100.00
20909;BME280;10614;53.198;6.570;2023-02-11T05:05:41;103070.56;;;6.19;100.00
20909;BME280;10614;53.198;6.570;2023-02-11T05:07:43;103066.22;;;6.20;100.00
20909;BME280;10614;53.198;6.570;2023-02-11T05:09:44;103068.81;;;6.20;100.00
20909;BME280;10614;53.198;6.570;2023-02-11T05:11:46;103059.25;;;6.20;100.00
20909;BME280;10614;53.198;6.570;2023-02-11T05:13:48;103063.59;;;6.20;100.00
20909;BME280;10614;53.198;6.570;2023-02-11T05:15:49;103067.09;;;6.20;100.00
20909;BME280;10614;53.198;6.570;2023-02-11T05:17:51;103073.22;;;6.22;100.00
20909;BME280;10614;53.198;6.570;2023-02-11T05:19:52;103069.75;;;6.23;100.00
20909;BME280;10614;53.198;6.570;2023-02-11T05:21:55;103072.38;;;6.23;100.00
20909;BME280;10614;53.198;6.570;2023-02-11T05:23:57;103072.38;;;6.25;100.00
20909;BME280;10614;53.198;6.570;2023-02-11T05:25:59;103064.56;;;6.26;100.00
20909;BME280;10614;53.198;6.570;2023-02-11T05:28:01;103058.44;;;6.23;100.00
20909;BME280;10614;53.198;6.570;2023-02-11T05:30:04;103063.63;;;6.21;100.00
20909;BME280;10614;53.198;6.570;2023-02-11T05:32:06;103054.09;;;6.26;100.00
20909;BME280;10614;53.198;6.570;2023-02-11T05:34:08;103061.06;;;6.27;100.00
20909;BME280;10614;53.198;6.570;2023-02-11T05:36:11;103056.72;;;6.26;100.00
20909;BME280;10614;53.198;6.570;2023-02-11T05:38:14;103062.84;;;6.28;100.00
20909;BME280;10614;53.198;6.570;2023-02-11T05:40:16;103063.69;;;6.27;100.00
20909;BME280;10614;53.198;6.570;2023-02-11T05:42:18;103061.06;;;6.26;100.00
20909;BME280;10614;53.198;6.570;2023-02-11T05:44:20;103060.22;;;6.27;100.00
20909;BME280;10614;53.198;6.570;2023-02-11T05:46:21;103069.78;;;6.26;100.00
20909;BME280;10614;53.198;6.570;2023-02-11T05:48:23;103070.69;;;6.28;100.00
20909;BME280;10614;53.198;6.570;2023-02-11T05:50:25;103067.22;;;6.29;100.00
20909;BME280;10614;53.198;6.570;2023-02-11T05:52:26;103072.44;;;6.29;100.00
20909;BME280;10614;53.198;6.570;2023-02-11T05:54:29;103068.13;;;6.30;100.00
20909;BME280;10614;53.198;6.570;2023-02-11T05:56:31;103064.59;;;6.29;100.00
20909;BME280;10614;53.198;6.570;2023-02-11T05:58:32;103063.72;;;6.29;100.00
20909;BME280;10614;53.198;6.570;2023-02-11T06:00:34;103068.13;;;6.30;100.00
20909;BME280;10614;53.198;6.570;2023-02-11T06:02:36;103070.72;;;6.30;100.00
20909;BME280;10614;53.198;6.570;2023-02-11T06:04:38;103070.69;;;6.28;100.00
20909;BME280;10614;53.198;6.570;2023-02-11T06:06:40;103065.50;;;6.30;100.00
20909;BME280;10614;53.198;6.570;2023-02-11T06:08:42;103078.56;;;6.30;100.00
20909;BME280;10614;53.198;6.570;2023-02-11T06:10:45;103071.59;;;6.30;100.00
20909;BME280;10614;53.198;6.570;2023-02-11T06:12:47;103073.34;;;6.30;100.00
20909;BME280;10614;53.198;6.570;2023-02-11T06:14:49;103073.34;;;6.31;100.00
20909;BME280;10614;53.198;6.570;2023-02-11T06:16:50;103078.56;;;6.30;100.00
20909;BME280;10614;53.198;6.570;2023-02-11T06:18:52;103073.34;;;6.30;100.00
20909;BME280;10614;53.198;6.570;2023-02-11T06:20:54;103068.94;;;6.29;100.00
20909;BME280;10614;53.198;6.570;2023-02-11T06:22:56;103070.72;;;6.31;100.00
20909;BME280;10614;53.198;6.570;2023-02-11T06:24:57;103078.56;;;6.30;100.00
20909;BME280;10614;53.198;6.570;2023-02-11T06:27:01;103067.25;;;6.31;100.00
20909;BME280;10614;53.198;6.570;2023-02-11T06:29:03;103055.91;;;6.32;100.00
20909;BME280;10614;53.198;6.570;2023-02-11T06:31:05;103057.72;;;6.34;100.00
20909;BME280;10614;53.198;6.570;2023-02-11T06:33:08;103055.97;;;6.35;100.00
20909;BME280;10614;53.198;6.570;2023-02-11T06:35:10;103066.44;;;6.35;100.00
20909;BME280;10614;53.198;6.570;2023-02-11T06:37:12;103065.56;;;6.36;100.00
20909;BME280;10614;53.198;6.570;2023-02-11T06:39:14;103071.66;;;6.37;100.00
20909;BME280;10614;53.198;6.570;2023-02-11T06:41:17;103057.72;;;6.34;100.00
20909;BME280;10614;53.198;6.570;2023-02-11T06:43:20;103073.41;;;6.34;100.00
20909;BME280;10614;53.198;6.570;2023-02-11T06:45:22;103065.50;;;6.31;100.00
20909;BME280;10614;53.198;6.570;2023-02-11T06:47:24;103069.88;;;6.32;100.00
20909;BME280;10614;53.198;6.570;2023-02-11T06:49:25;103074.25;;;6.33;100.00
20909;BME280;10614;53.198;6.570;2023-02-11T06:51:27;103075.97;;;6.31;100.00
20909;BME280;10614;53.198;6.570;2023-02-11T06:53:29;103083.84;;;6.33;100.00
20909;BME280;10614;53.198;6.570;2023-02-11T06:55:33;103078.59;;;6.33;100.00
20909;BME280;10614;53.198;6.570;2023-02-11T06:57:35;103082.97;;;6.32;100.00
20909;BME280;10614;53.198;6.570;2023-02-11T06:59:38;103076.00;;;6.33;100.00
20909;BME280;10614;53.198;6.570;2023-02-11T07:01:39;103084.69;;;6.32;100.00
20909;BME280;10614;53.198;6.570;2023-02-11T07:03:42;103072.50;;;6.32;100.00
20909;BME280;10614;53.198;6.570;2023-02-11T07:05:44;103080.34;;;6.34;100.00
20909;BME280;10614;53.198;6.570;2023-02-11T07:07:46;103084.72;;;6.33;100.00
20909;BME280;10614;53.198;6.570;2023-02-11T07:09:48;103080.38;;;6.36;100.00
20909;BME280;10614;53.198;6.570;2023-02-11T07:11:49;103087.34;;;6.37;100.00
20909;BME280;10614;53.198;6.570;2023-02-11T07:13:52;103085.59;;;6.34;100.00
20909;BME280;10614;53.198;6.570;2023-02-11T07:15:56;103093.44;;;6.34;100.00
20909;BME280;10614;53.198;6.570;2023-02-11T07:17:57;103089.97;;;6.35;100.00
20909;BME280;10614;53.198;6.570;2023-02-11T07:19:59;103095.22;;;6.35;100.00
20909;BME280;10614;53.198;6.570;2023-02-11T07:22:01;103095.22;;;6.37;100.00
20909;BME280;10614;53.198;6.570;2023-02-11T07:24:05;103093.50;;;6.37;100.00
20909;BME280;10614;53.198;6.570;2023-02-11T07:26:09;103098.72;;;6.39;100.00
20909;BME280;10614;53.198;6.570;2023-02-11T07:28:10;103105.66;;;6.37;100.00
20909;BME280;10614;53.198;6.570;2023-02-11T07:32:16;103100.50;;;6.40;100.00
20909;BME280;10614;53.198;6.570;2023-02-11T07:34:17;103090.94;;;6.42;100.00
20909;BME280;10614;53.198;6.570;2023-02-11T07:36:20;103093.56;;;6.43;100.00
20909;BME280;10614;53.198;6.570;2023-02-11T07:38:22;103082.22;;;6.43;100.00
20909;BME280;10614;53.198;6.570;2023-02-11T07:40:23;103094.44;;;6.42;100.00
20909;BME280;10614;53.198;6.570;2023-02-11T07:42:25;103098.75;;;6.40;100.00
20909;BME280;10614;53.198;6.570;2023-02-11T07:44:26;103087.41;;;6.40;100.00
20909;BME280;10614;53.198;6.570;2023-02-11T07:46:28;103091.81;;;6.44;100.00
20909;BME280;10614;53.198;6.570;2023-02-11T07:48:32;103098.78;;;6.43;100.00
20909;BME280;10614;53.198;6.570;2023-02-11T07:50:33;103088.38;;;6.46;100.00
20909;BME280;10614;53.198;6.570;2023-02-11T07:52:35;103092.72;;;6.44;100.00
20909;BME280;10614;53.198;6.570;2023-02-11T07:54:36;103095.41;;;6.49;100.00
20909;BME280;10614;53.198;6.570;2023-02-11T07:56:38;103103.25;;;6.49;100.00
20909;BME280;10614;53.198;6.570;2023-02-11T07:58:40;103102.34;;;6.47;100.00
20909;BME280;10614;53.198;6.570;2023-02-11T08:00:42;103103.22;;;6.47;100.00
20909;BME280;10614;53.198;6.570;2023-02-11T08:02:44;103103.25;;;6.49;100.00
20909;BME280;10614;53.198;6.570;2023-02-11T08:04:48;103110.22;;;6.50;100.00
20909;BME280;10614;53.198;6.570;2023-02-11T08:06:50;103107.66;;;6.54;100.00
20909;BME280;10614;53.198;6.570;2023-02-11T08:08:55;103109.38;;;6.52;100.00
20909;BME280;10614;53.198;6.570;2023-02-11T08:10:56;103111.16;;;6.55;100.00
20909;BME280;10614;53.198;6.570;2023-02-11T08:12:58;103112.94;;;6.58;100.00
20909;BME280;10614;53.198;6.570;2023-02-11T08:15:00;103129.50;;;6.57;100.00
20909;BME280;10614;53.198;6.570;2023-02-11T08:17:02;103130.38;;;6.55;100.00
20909;BME280;10614;53.198;6.570;2023-02-11T08:19:06;103133.00;;;6.57;100.00
20909;BME280;10614;53.198;6.570;2023-02-11T08:21:09;103133.03;;;6.60;100.00
20909;BME280;10614;53.198;6.570;2023-02-11T08:23:11;103133.94;;;6.62;100.00
20909;BME280;10614;53.198;6.570;2023-02-11T08:25:13;103136.53;;;6.62;100.00
20909;BME280;10614;53.198;6.570;2023-02-11T08:27:14;103147.91;;;6.63;100.00
20909;BME280;10614;53.198;6.570;2023-02-11T08:29:16;103141.84;;;6.65;100.00
20909;BME280;10614;53.198;6.570;2023-02-11T08:31:20;103155.81;;;6.67;100.00
20909;BME280;10614;53.198;6.570;2023-02-11T08:33:22;103156.69;;;6.69;100.00
20909;BME280;10614;53.198;6.570;2023-02-11T08:35:24;103151.47;;;6.69;100.00
20909;BME280;10614;53.198;6.570;2023-02-11T08:37:27;103161.09;;;6.70;100.00
20909;BME280;10614;53.198;6.570;2023-02-11T08:39:28;103158.44;;;6.69;100.00
20909;BME280;10614;53.198;6.570;2023-02-11T08:41:30;103162.84;;;6.71;100.00
20909;BME280;10614;53.198;6.570;2023-02-11T08:43:32;103168.06;;;6.71;100.00
20909;BME280;10614;53.198;6.570;2023-02-11T08:45:35;103167.25;;;6.75;100.00
20909;BME280;10614;53.198;6.570;2023-02-11T08:47:37;103156.78;;;6.75;100.00
20909;BME280;10614;53.198;6.570;2023-02-11T08:49:39;103163.81;;;6.78;100.00
20909;BME280;10614;53.198;6.570;2023-02-11T08:51:42;103169.97;;;6.82;100.00
20909;BME280;10614;53.198;6.570;2023-02-11T08:53:45;103175.25;;;6.85;100.00
20909;BME280;10614;53.198;6.570;2023-02-11T08:55:47;103180.47;;;6.85;100.00
20909;BME280;10614;53.198;6.570;2023-02-11T08:57:49;103178.72;;;6.85;100.00
20909;BME280;10614;53.198;6.570;2023-02-11T08:59:51;103184.91;;;6.90;100.00
20909;BME280;10614;53.198;6.570;2023-02-11T09:01:52;103183.19;;;6.91;100.00
20909;BME280;10614;53.198;6.570;2023-02-11T09:03:55;103191.91;;;6.91;100.00
20909;BME280;10614;53.198;6.570;2023-02-11T09:05:57;103196.31;;;6.94;100.00
20909;BME280;10614;53.198;6.570;2023-02-11T09:07:58;103202.38;;;6.93;100.00
20909;BME280;10614;53.198;6.570;2023-02-11T09:10:02;103201.53;;;6.94;100.00
20909;BME280;10614;53.198;6.570;2023-02-11T09:12:04;103202.38;;;6.93;100.00
20909;BME280;10614;53.198;6.570;2023-02-11T09:14:06;103208.59;;;6.98;100.00
20909;BME280;10614;53.198;6.570;2023-02-11T09:16:15;103206.00;;;7.01;100.00
20909;BME280;10614;53.198;6.570;2023-02-11T09:18:17;103220.00;;;7.03;100.00
20909;BME280;10614;53.198;6.570;2023-02-11T09:20:19;103221.72;;;7.04;100.00
20909;BME280;10614;53.198;6.570;2023-02-11T09:22:21;103224.38;;;7.06;100.00
20909;BME280;10614;53.198;6.570;2023-02-11T09:24:22;103228.75;;;7.07;100.00
20909;BME280;10614;53.198;6.570;2023-02-11T09:26:27;103233.16;;;7.09;100.00
20909;BME280;10614;53.198;6.570;2023-02-11T09:28:29;103224.47;;;7.12;100.00
20909;BME280;10614;53.198;6.570;2023-02-11T09:30:30;103231.47;;;7.16;100.00
20909;BME280;10614;53.198;6.570;2023-02-11T09:32:33;103235.00;;;7.16;100.00
20909;BME280;10614;53.198;6.570;2023-02-11T09:34:34;103222.78;;;7.18;100.00
20909;BME280;10614;53.198;6.570;2023-02-11T09:36:37;103235.03;;;7.19;100.00
20909;BME280;10614;53.198;6.570;2023-02-11T09:38:39;103241.19;;;7.23;100.00
20909;BME280;10614;53.198;6.570;2023-02-11T09:40:41;103242.13;;;7.27;100.00
20909;BME280;10614;53.198;6.570;2023-02-11T09:42:47;103244.75;;;7.28;100.00
20909;BME280;10614;53.198;6.570;2023-02-11T09:44:50;103243.91;;;7.31;100.00
20909;BME280;10614;53.198;6.570;2023-02-11T09:46:54;103250.94;;;7.35;100.00
20909;BME280;10614;53.198;6.570;2023-02-11T09:48:58;103260.53;;;7.33;100.00
20909;BME280;10614;53.198;6.570;2023-02-11T09:51:01;103257.06;;;7.35;100.00
20909;BME280;10614;53.198;6.570;2023-02-11T09:53:09;103244.03;;;7.40;100.00
20909;BME280;10614;53.198;6.570;2023-02-11T09:55:20;103254.53;;;7.43;100.00
20909;BME280;10614;53.198;6.570;2023-02-11T09:57:27;103248.41;;;7.44;100.00
20909;BME280;10614;53.198;6.570;2023-02-11T09:59:31;103253.69;;;7.46;100.00
20909;BME280;10614;53.198;6.570;2023-02-11T10:01:38;103258.97;;;7.50;100.00
20909;BME280;10614;53.198;6.570;2023-02-11T10:03:57;103271.22;;;7.51;100.00
20909;BME280;10614;53.198;6.570;2023-02-11T10:06:29;103269.50;;;7.52;100.00
20909;BME280;10614;53.198;6.570;2023-02-11T10:08:40;103279.97;;;7.53;100.00
20909;BME280;10614;53.198;6.570;2023-02-11T10:10:51;103281.78;;;7.57;100.00
20909;BME280;10614;53.198;6.570;2023-02-11T10:13:06;103285.28;;;7.58;100.00
20909;BME280;10614;53.198;6.570;2023-02-11T10:15:23;103287.94;;;7.61;100.00
20909;BME280;10614;53.198;6.570;2023-02-11T10:17:32;103293.22;;;7.64;100.00
20909;BME280;10614;53.198;6.570;2023-02-11T10:19:53;103299.34;;;7.65;100.00
20909;BME280;10614;53.198;6.570;2023-02-11T10:22:07;103294.13;;;7.66;100.00
20909;BME280;10614;53.198;6.570;2023-02-11T10:24:13;103291.56;;;7.71;100.00
20909;BME280;10614;53.198;6.570;2023-02-11T10:26:18;103303.81;;;7.75;100.00
20909;BME280;10614;53.198;6.570;2023-02-11T10:28:22;103304.72;;;7.77;100.00
20909;BME280;10614;53.198;6.570;2023-02-11T10:30:29;103307.34;;;7.78;100.00
20909;BME280;10614;53.198;6.570;2023-02-11T10:32:37;103310.91;;;7.82;100.00
20909;BME280;10614;53.198;6.570;2023-02-11T10:34:42;103306.53;;;7.82;100.00
20909;BME280;10614;53.198;6.570;2023-02-11T10:36:44;103304.81;;;7.86;100.00
20909;BME280;10614;53.198;6.570;2023-02-11T10:38:46;103314.47;;;7.87;100.00
20909;BME280;10614;53.198;6.570;2023-02-11T10:40:49;103322.28;;;7.86;100.00
20909;BME280;10614;53.198;6.570;2023-02-11T10:42:53;103307.47;;;7.88;100.00
20909;BME280;10614;53.198;6.570;2023-02-11T10:44:57;103318.84;;;7.90;100.00
20909;BME280;10614;53.198;6.570;2023-02-11T10:47:03;103320.59;;;7.91;100.00
20909;BME280;10614;53.198;6.570;2023-02-11T10:49:05;103304.00;;;7.93;100.00
20909;BME280;10614;53.198;6.570;2023-02-11T10:51:15;103296.13;;;7.93;100.00
20909;BME280;10614;53.198;6.570;2023-02-11T10:53:19;103299.72;;;7.98;100.00
20909;BME280;10614;53.198;6.570;2023-02-11T10:55:24;103297.97;;;7.99;100.00